Time,TemperatureF,DewpointF,PressureIn,WindDirection,WindDirectionDegrees,WindSpeedMPH,WindSpeedGustMPH,Humidity,HourlyPrecipIn,Conditions,Clouds,dailyrainin,SoftwareType,DateUTC
2013-03-29 00:08:00,42.1,34.7,29.96,North,5,5.0,5.0,75,0.00,,,0.00,Wunderground v.1.15,2013-03-29 04:08:00,
2013-03-29 00:18:00,42.2,34.8,29.96,North,5,6.0,11.0,75,0.00,,,0.00,Wunderground v.1.15,2013-03-29 04:18:00,
2013-03-29 00:28:00,42.0,34.6,29.96,North,5,5.0,5.0,75,0.00,,,0.00,Wunderground v.1.15,2013-03-29 04:28:00,
2013-03-29 00:38:00,41.9,34.6,29.96,North,5,5.0,10.0,75,0.00,,,0.00,Wunderground v.1.15,2013-03-29 04:38:00,
2013-03-29 00:48:00,41.9,34.6,29.97,North,5,6.0,11.0,75,0.00,,,0.00,Wunderground v.1.15,2013-03-29 04:48:00,
2013-03-29 00:57:00,41.8,34.5,29.97,North,5,5.0,12.0,75,0.00,,,0.00,Wunderground v.1.15,2013-03-29 04:57:00,
2013-03-29 01:07:00,41.8,34.1,29.97,North,5,5.0,11.0,74,0.00,,,0.00,Wunderground v.1.15,2013-03-29 05:07:00,
2013-03-29 01:17:00,41.9,34.2,29.97,North,5,6.0,6.0,74,0.00,,,0.00,Wunderground v.1.15,2013-03-29 05:17:00,
2013-03-29 01:27:00,42.1,34.1,29.97,North,5,6.0,6.0,73,0.00,,,0.00,Wunderground v.1.15,2013-03-29 05:27:00,
2013-03-29 01:37:00,42.1,34.1,29.98,North,5,6.0,6.0,73,0.00,,,0.00,Wunderground v.1.15,2013-03-29 05:37:00,
2013-03-29 01:47:00,42.0,34.0,29.97,North,5,6.0,12.0,73,0.00,,,0.00,Wunderground v.1.15,2013-03-29 05:47:00,
2013-03-29 01:58:00,42.1,34.1,29.97,North,5,6.0,11.0,73,0.00,,,0.00,Wunderground v.1.15,2013-03-29 05:58:00,
2013-03-29 02:08:00,42.0,34.0,29.97,North,5,6.0,6.0,73,0.00,,,0.00,Wunderground v.1.15,2013-03-29 06:08:00,
2013-03-29 02:18:00,42.0,34.3,29.97,North,5,6.0,6.0,74,0.00,,,0.00,Wunderground v.1.15,2013-03-29 06:18:00,
2013-03-29 02:28:00,42.0,34.3,29.97,North,5,6.0,13.0,74,0.00,,,0.00,Wunderground v.1.15,2013-03-29 06:28:00,
2013-03-29 02:38:00,41.9,34.2,29.97,North,5,7.0,7.0,74,0.00,,,0.00,Wunderground v.1.15,2013-03-29 06:38:00,
2013-03-29 02:48:00,41.8,34.5,29.97,North,5,7.0,12.0,75,0.00,,,0.00,Wunderground v.1.15,2013-03-29 06:48:00,
2013-03-29 02:58:00,41.8,34.1,29.97,North,5,7.0,7.0,74,0.00,,,0.00,Wunderground v.1.15,2013-03-29 06:58:00,
2013-03-29 03:08:00,41.8,34.5,29.97,North,5,7.0,12.0,75,0.00,,,0.00,Wunderground v.1.15,2013-03-29 07:08:00,
2013-03-29 03:18:00,41.6,34.3,29.97,North,5,7.0,13.0,75,0.00,,,0.00,Wunderground v.1.15,2013-03-29 07:18:00,
2013-03-29 03:28:00,41.6,34.3,29.97,North,5,8.0,13.0,75,0.00,,,0.00,Wunderground v.1.15,2013-03-29 07:28:00,
2013-03-29 03:38:00,41.5,34.5,29.97,North,5,9.0,9.0,76,0.00,,,0.00,Wunderground v.1.15,2013-03-29 07:38:00,
2013-03-29 03:48:00,41.3,34.3,29.97,North,360,8.0,14.0,76,0.00,,,0.00,Wunderground v.1.15,2013-03-29 07:48:00,
2013-03-29 03:58:00,41.0,34.3,29.97,North,5,9.0,9.0,77,0.00,,,0.00,Wunderground v.1.15,2013-03-29 07:58:00,
2013-03-29 04:08:00,40.8,34.1,29.97,North,5,8.0,8.0,77,0.00,,,0.00,Wunderground v.1.15,2013-03-29 08:08:00,
2013-03-29 04:18:00,40.8,34.1,29.98,North,5,7.0,12.0,77,0.00,,,0.00,Wunderground v.1.15,2013-03-29 08:18:00,
2013-03-29 04:28:00,40.9,33.9,29.98,North,5,7.0,7.0,76,0.00,,,0.00,Wunderground v.1.15,2013-03-29 08:28:00,
2013-03-29 04:38:00,40.8,33.5,29.98,North,5,7.0,12.0,75,0.00,,,0.00,Wunderground v.1.15,2013-03-29 08:38:00,
2013-03-29 04:48:00,40.7,34.0,29.97,North,5,8.0,12.0,77,0.00,,,0.00,Wunderground v.1.15,2013-03-29 08:48:00,
2013-03-29 04:58:00,40.4,33.4,29.97,North,5,8.0,8.0,76,0.00,,,0.00,Wunderground v.1.15,2013-03-29 08:58:00,
2013-03-29 05:07:00,40.4,33.4,29.97,North,5,8.0,14.0,76,0.00,,,0.00,Wunderground v.1.15,2013-03-29 09:07:00,
2013-03-29 05:18:00,40.3,33.7,29.97,North,5,7.0,7.0,77,0.00,,,0.00,Wunderground v.1.15,2013-03-29 09:18:00,
2013-03-29 05:28:00,40.0,33.7,29.97,North,5,7.0,14.0,78,0.00,,,0.00,Wunderground v.1.15,2013-03-29 09:28:00,
2013-03-29 05:38:00,39.7,33.4,29.98,North,5,7.0,7.0,78,0.00,,,0.00,Wunderground v.1.15,2013-03-29 09:38:00,
2013-03-29 05:48:00,39.5,33.5,29.98,North,5,6.0,14.0,79,0.00,,,0.00,Wunderground v.1.15,2013-03-29 09:48:00,
2013-03-29 05:58:00,39.4,33.1,29.98,North,5,7.0,7.0,78,0.00,,,0.00,Wunderground v.1.15,2013-03-29 09:58:00,
2013-03-29 06:08:00,39.4,32.8,29.98,North,5,7.0,12.0,77,0.00,,,0.00,Wunderground v.1.15,2013-03-29 10:08:00,
2013-03-29 06:17:00,39.5,32.9,29.98,North,5,7.0,7.0,77,0.00,,,0.00,Wunderground v.1.15,2013-03-29 10:17:00,
2013-03-29 06:27:00,39.3,33.0,29.98,North,5,7.0,7.0,78,0.00,,,0.00,Wunderground v.1.15,2013-03-29 10:27:00,
2013-03-29 06:37:00,39.1,32.8,29.98,North,5,7.0,13.0,78,0.00,,,0.00,Wunderground v.1.15,2013-03-29 10:37:00,
2013-03-29 06:47:00,39.1,33.1,29.98,North,5,7.0,16.0,79,0.00,,,0.00,Wunderground v.1.15,2013-03-29 10:47:00,
2013-03-29 06:58:00,38.9,33.3,29.98,North,5,7.0,7.0,80,0.00,,,0.00,Wunderground v.1.15,2013-03-29 10:58:00,
2013-03-29 07:08:00,38.9,33.6,29.98,North,5,7.0,7.0,81,0.00,,,0.00,Wunderground v.1.15,2013-03-29 11:08:00,
2013-03-29 07:18:00,38.8,33.5,29.99,North,5,7.0,12.0,81,0.00,,,0.00,Wunderground v.1.15,2013-03-29 11:18:00,
2013-03-29 07:28:00,38.9,33.6,29.99,North,5,7.0,7.0,81,0.00,,,0.00,Wunderground v.1.15,2013-03-29 11:28:00,
2013-03-29 07:38:00,39.1,33.5,29.99,North,5,6.0,6.0,80,0.00,,,0.00,Wunderground v.1.15,2013-03-29 11:38:00,
2013-03-29 07:48:00,39.2,33.5,30.00,North,5,7.0,14.0,80,0.00,,,0.00,Wunderground v.1.15,2013-03-29 11:48:00,
2013-03-29 07:58:00,39.3,33.6,30.00,North,5,7.0,7.0,80,0.00,,,0.00,Wunderground v.1.15,2013-03-29 11:58:00,
2013-03-29 08:08:00,39.4,33.7,30.00,North,5,7.0,7.0,80,0.00,,,0.00,Wunderground v.1.15,2013-03-29 12:08:00,
2013-03-29 08:18:00,39.6,33.6,30.00,North,5,7.0,7.0,79,0.00,,,0.00,Wunderground v.1.15,2013-03-29 12:18:00,
2013-03-29 08:28:00,39.7,33.7,30.00,North,5,7.0,7.0,79,0.00,,,0.00,Wunderground v.1.15,2013-03-29 12:28:00,
2013-03-29 08:38:00,39.8,33.5,30.00,North,5,7.0,7.0,78,0.00,,,0.00,Wunderground v.1.15,2013-03-29 12:38:00,
2013-03-29 08:48:00,40.0,33.4,30.00,North,5,7.0,13.0,77,0.00,,,0.00,Wunderground v.1.15,2013-03-29 12:48:00,
2013-03-29 08:58:00,40.2,32.9,30.00,North,5,6.0,14.0,75,0.00,,,0.00,Wunderground v.1.15,2013-03-29 12:58:00,
2013-03-29 09:08:00,40.4,33.1,30.00,North,5,8.0,8.0,75,0.00,,,0.00,Wunderground v.1.15,2013-03-29 13:08:00,
2013-03-29 09:18:00,40.5,33.5,30.00,North,5,7.0,13.0,76,0.00,,,0.00,Wunderground v.1.15,2013-03-29 13:18:00,
2013-03-29 09:28:00,40.5,33.9,30.00,North,5,6.0,14.0,77,0.00,,,0.00,Wunderground v.1.15,2013-03-29 13:28:00,
2013-03-29 09:38:00,40.6,34.3,30.00,North,5,6.0,6.0,78,0.00,,,0.00,Wunderground v.1.15,2013-03-29 13:38:00,
2013-03-29 09:48:00,41.0,34.3,30.00,North,5,5.0,12.0,77,0.00,,,0.00,Wunderground v.1.15,2013-03-29 13:48:00,
2013-03-29 09:58:00,41.1,34.1,30.00,North,5,5.0,12.0,76,0.00,,,0.00,Wunderground v.1.15,2013-03-29 13:58:00,
2013-03-29 10:08:00,41.4,34.4,30.00,North,5,5.0,5.0,76,0.00,,,0.00,Wunderground v.1.15,2013-03-29 14:08:00,
2013-03-29 10:18:00,41.5,34.2,30.00,North,5,6.0,11.0,75,0.00,,,0.00,Wunderground v.1.15,2013-03-29 14:18:00,
2013-03-29 10:28:00,41.4,33.4,30.00,North,5,7.0,7.0,73,0.00,,,0.00,Wunderground v.1.15,2013-03-29 14:28:00,
2013-03-29 10:38:00,41.6,32.5,30.00,North,5,6.0,6.0,70,0.00,,,0.00,Wunderground v.1.15,2013-03-29 14:38:00,
2013-03-29 10:47:00,42.1,32.3,30.00,North,5,7.0,7.0,68,0.00,,,0.00,Wunderground v.1.15,2013-03-29 14:47:00,
2013-03-29 10:57:00,42.7,32.5,30.00,North,5,6.0,6.0,67,0.00,,,0.00,Wunderground v.1.15,2013-03-29 14:57:00,
2013-03-29 11:07:00,42.9,32.3,30.01,North,5,7.0,7.0,66,0.00,,,0.00,Wunderground v.1.15,2013-03-29 15:07:00,
2013-03-29 11:17:00,43.2,32.6,30.01,North,5,7.0,13.0,66,0.00,,,0.00,Wunderground v.1.15,2013-03-29 15:17:00,
2013-03-29 11:27:00,43.8,32.8,30.01,North,5,7.0,7.0,65,0.00,,,0.00,Wunderground v.1.15,2013-03-29 15:27:00,
2013-03-29 11:37:00,44.3,32.1,30.00,North,5,7.0,13.0,62,0.00,,,0.00,Wunderground v.1.15,2013-03-29 15:37:00,
2013-03-29 11:47:00,44.9,32.7,30.00,North,5,6.0,15.0,62,0.00,,,0.00,Wunderground v.1.15,2013-03-29 15:47:00,
2013-03-29 11:58:00,45.5,32.4,30.00,North,5,6.0,12.0,60,0.00,,,0.00,Wunderground v.1.15,2013-03-29 15:58:00,
2013-03-29 12:08:00,46.0,32.5,29.99,North,5,6.0,6.0,59,0.00,,,0.00,Wunderground v.1.15,2013-03-29 16:08:00,
2013-03-29 12:18:00,46.6,32.2,29.99,North,5,7.0,7.0,57,0.00,,,0.00,Wunderground v.1.15,2013-03-29 16:18:00,
2013-03-29 12:28:00,47.3,31.9,29.99,North,5,6.0,6.0,55,0.00,,,0.00,Wunderground v.1.15,2013-03-29 16:28:00,
2013-03-29 12:38:00,47.9,32.0,29.99,North,5,6.0,14.0,54,0.00,,,0.00,Wunderground v.1.15,2013-03-29 16:38:00,
2013-03-29 12:48:00,48.6,32.2,29.98,North,5,6.0,6.0,53,0.00,,,0.00,Wunderground v.1.15,2013-03-29 16:48:00,
2013-03-29 12:58:00,49.4,32.0,29.98,North,5,6.0,6.0,51,0.00,,,0.00,Wunderground v.1.15,2013-03-29 16:58:00,
2013-03-29 13:08:00,49.8,31.9,29.98,North,5,6.0,12.0,50,0.00,,,0.00,Wunderground v.1.15,2013-03-29 17:08:00,
2013-03-29 13:18:00,50.2,31.2,29.98,North,5,6.0,13.0,48,0.00,,,0.00,Wunderground v.1.15,2013-03-29 17:18:00,
2013-03-29 13:28:00,50.8,31.3,29.98,North,5,5.0,11.0,47,0.00,,,0.00,Wunderground v.1.15,2013-03-29 17:28:00,
2013-03-29 13:38:00,51.1,31.0,29.97,North,5,6.0,12.0,46,0.00,,,0.00,Wunderground v.1.15,2013-03-29 17:38:00,
2013-03-29 13:48:00,51.4,31.8,29.96,North,5,4.0,13.0,47,0.00,,,0.00,Wunderground v.1.15,2013-03-29 17:48:00,
2013-03-29 13:58:00,51.9,31.2,29.96,North,5,5.0,12.0,45,0.00,,,0.00,Wunderground v.1.15,2013-03-29 17:58:00,
2013-03-29 14:08:00,52.8,30.9,29.96,North,5,5.0,5.0,43,0.00,,,0.00,Wunderground v.1.15,2013-03-29 18:08:00,
2013-03-29 14:18:00,53.1,30.6,29.95,North,5,6.0,6.0,42,0.00,,,0.00,Wunderground v.1.15,2013-03-29 18:18:00,
2013-03-29 14:28:00,53.6,30.4,29.95,North,5,5.0,13.0,41,0.00,,,0.00,Wunderground v.1.15,2013-03-29 18:28:00,
2013-03-29 14:38:00,53.9,30.1,29.95,North,5,5.0,12.0,40,0.00,,,0.00,Wunderground v.1.15,2013-03-29 18:38:00,
2013-03-29 14:48:00,54.1,30.3,29.94,North,5,6.0,6.0,40,0.00,,,0.00,Wunderground v.1.15,2013-03-29 18:48:00,
2013-03-29 14:58:00,54.2,29.8,29.94,North,5,5.0,12.0,39,0.00,,,0.00,Wunderground v.1.15,2013-03-29 18:58:00,
2013-03-29 15:08:00,54.0,30.8,29.94,North,5,6.0,6.0,41,0.00,,,0.00,Wunderground v.1.15,2013-03-29 19:08:00,
2013-03-29 15:18:00,53.3,29.6,29.93,North,5,7.0,7.0,40,0.00,,,0.00,Wunderground v.1.15,2013-03-29 19:18:00,
2013-03-29 15:28:00,53.0,29.3,29.93,North,5,7.0,7.0,40,0.00,,,0.00,Wunderground v.1.15,2013-03-29 19:28:00,
2013-03-29 15:38:00,52.6,29.5,29.93,North,5,7.0,7.0,41,0.00,,,0.00,Wunderground v.1.15,2013-03-29 19:38:00,
2013-03-29 15:48:00,52.8,29.1,29.93,North,5,7.0,15.0,40,0.00,,,0.00,Wunderground v.1.15,2013-03-29 19:48:00,
2013-03-29 15:58:00,53.0,28.7,29.93,North,5,8.0,8.0,39,0.00,,,0.00,Wunderground v.1.15,2013-03-29 19:58:00,
2013-03-29 16:08:00,53.2,28.9,29.93,North,5,8.0,14.0,39,0.00,,,0.00,Wunderground v.1.15,2013-03-29 20:08:00,
2013-03-29 16:18:00,53.4,28.4,29.93,North,5,6.0,14.0,38,0.00,,,0.00,Wunderground v.1.15,2013-03-29 20:18:00,
2013-03-29 16:27:00,53.4,29.0,29.93,North,5,7.0,7.0,39,0.00,,,0.00,Wunderground v.1.15,2013-03-29 20:27:00,
2013-03-29 16:37:00,52.8,30.3,29.93,North,5,8.0,15.0,42,0.00,,,0.00,Wunderground v.1.15,2013-03-29 20:37:00,
2013-03-29 16:47:00,52.2,30.4,29.93,North,5,7.0,7.0,43,0.00,,,0.00,Wunderground v.1.15,2013-03-29 20:47:00,
2013-03-29 16:58:00,52.9,28.6,29.93,North,5,7.0,7.0,39,0.00,,,0.00,Wunderground v.1.15,2013-03-29 20:58:00,
2013-03-29 17:08:00,53.3,29.6,29.92,North,5,7.0,15.0,40,0.00,,,0.00,Wunderground v.1.15,2013-03-29 21:08:00,
2013-03-29 17:18:00,52.7,29.6,29.93,North,5,8.0,16.0,41,0.00,,,0.00,Wunderground v.1.15,2013-03-29 21:18:00,
2013-03-29 17:28:00,51.8,28.8,29.93,North,5,9.0,9.0,41,0.00,,,0.00,Wunderground v.1.15,2013-03-29 21:28:00,
2013-03-29 17:38:00,51.4,30.7,29.92,North,5,7.0,7.0,45,0.00,,,0.00,Wunderground v.1.15,2013-03-29 21:38:00,
2013-03-29 17:48:00,50.4,29.8,29.93,North,5,8.0,16.0,45,0.00,,,0.00,Wunderground v.1.15,2013-03-29 21:48:00,
2013-03-29 17:58:00,50.1,28.4,29.93,North,5,8.0,17.0,43,0.00,,,0.00,Wunderground v.1.15,2013-03-29 21:58:00,
2013-03-29 18:08:00,49.8,28.7,29.93,North,5,8.0,8.0,44,0.00,,,0.00,Wunderground v.1.15,2013-03-29 22:08:00,
2013-03-29 18:18:00,48.9,29.5,29.93,North,5,7.0,19.0,47,0.00,,,0.00,Wunderground v.1.15,2013-03-29 22:18:00,
2013-03-29 18:28:00,48.4,28.5,29.93,North,5,7.0,7.0,46,0.00,,,0.00,Wunderground v.1.15,2013-03-29 22:28:00,
2013-03-29 18:38:00,48.3,28.5,29.93,North,5,5.0,5.0,46,0.00,,,0.00,Wunderground v.1.15,2013-03-29 22:38:00,
2013-03-29 18:48:00,48.2,27.8,29.93,North,5,5.0,15.0,45,0.00,,,0.00,Wunderground v.1.15,2013-03-29 22:48:00,
2013-03-29 18:58:00,48.2,27.8,29.93,North,5,6.0,17.0,45,0.00,,,0.00,Wunderground v.1.15,2013-03-29 22:58:00,
2013-03-29 19:08:00,47.8,29.5,29.93,North,5,7.0,7.0,49,0.00,,,0.00,Wunderground v.1.15,2013-03-29 23:08:00,
2013-03-29 19:18:00,47.2,30.0,29.93,North,5,8.0,8.0,51,0.00,,,0.00,Wunderground v.1.15,2013-03-29 23:18:00,
2013-03-29 19:28:00,46.5,32.1,29.93,North,5,9.0,9.0,57,0.00,,,0.00,Wunderground v.1.15,2013-03-29 23:28:00,
2013-03-29 19:38:00,45.2,33.3,29.93,North,5,9.0,20.0,63,0.00,,,0.00,Wunderground v.1.15,2013-03-29 23:38:00,
2013-03-29 19:48:00,44.5,33.1,29.94,North,5,11.0,11.0,64,0.00,,,0.00,Wunderground v.1.15,2013-03-29 23:48:00,
2013-03-29 19:58:00,43.6,33.7,29.94,North,5,11.0,11.0,68,0.00,,,0.00,Wunderground v.1.15,2013-03-29 23:58:00,
2013-03-29 20:08:00,43.3,33.8,29.94,North,5,12.0,18.0,69,0.00,,,0.00,Wunderground v.1.15,2013-03-30 00:08:00,
2013-03-29 20:17:00,43.1,34.0,29.95,North,5,12.0,21.0,70,0.00,,,0.00,Wunderground v.1.15,2013-03-30 00:17:00,
2013-03-29 20:27:00,43.3,34.2,29.95,North,5,12.0,12.0,70,0.00,,,0.00,Wunderground v.1.15,2013-03-30 00:27:00,
2013-03-29 20:37:00,43.0,34.2,29.95,North,5,11.0,17.0,71,0.00,,,0.00,Wunderground v.1.15,2013-03-30 00:37:00,
2013-03-29 20:47:00,42.5,34.5,29.96,North,5,13.0,19.0,73,0.00,,,0.00,Wunderground v.1.15,2013-03-30 00:47:00,
2013-03-29 20:57:00,42.6,34.2,29.96,North,5,13.0,13.0,72,0.00,,,0.00,Wunderground v.1.15,2013-03-30 00:57:00,
2013-03-29 21:07:00,42.5,34.1,29.96,North,5,12.0,17.0,72,0.00,,,0.00,Wunderground v.1.15,2013-03-30 01:07:00,
2013-03-29 21:17:00,42.3,33.9,29.97,North,5,11.0,19.0,72,0.00,,,0.00,Wunderground v.1.15,2013-03-30 01:17:00,
2013-03-29 21:27:00,42.2,34.2,29.97,North,5,9.0,9.0,73,0.00,,,0.00,Wunderground v.1.15,2013-03-30 01:27:00,
2013-03-29 21:37:00,41.9,34.2,29.98,North,360,8.0,8.0,74,0.00,,,0.00,Wunderground v.1.15,2013-03-30 01:37:00,
2013-03-29 21:47:00,41.7,34.4,29.98,North,5,6.0,12.0,75,0.00,,,0.00,Wunderground v.1.15,2013-03-30 01:47:00,
2013-03-29 21:58:00,41.4,34.1,29.98,North,5,5.0,9.0,75,0.00,,,0.00,Wunderground v.1.15,2013-03-30 01:58:00,
2013-03-29 22:08:00,41.5,34.2,29.98,North,5,7.0,11.0,75,0.00,,,0.00,Wunderground v.1.15,2013-03-30 02:08:00,
2013-03-29 22:18:00,41.6,33.6,29.98,North,5,9.0,9.0,73,0.00,,,0.00,Wunderground v.1.15,2013-03-30 02:18:00,
2013-03-29 22:28:00,41.2,34.5,29.98,North,5,6.0,6.0,77,0.00,,,0.00,Wunderground v.1.15,2013-03-30 02:28:00,
2013-03-29 22:38:00,40.9,33.9,29.99,North,5,7.0,11.0,76,0.00,,,0.00,Wunderground v.1.15,2013-03-30 02:38:00,
2013-03-29 22:48:00,40.6,34.6,29.99,North,5,5.0,5.0,79,0.00,,,0.00,Wunderground v.1.15,2013-03-30 02:48:00,
2013-03-29 22:58:00,40.3,34.3,29.99,North,5,5.0,7.0,79,0.00,,,0.00,Wunderground v.1.15,2013-03-30 02:58:00,
2013-03-29 23:08:00,40.6,34.3,29.99,North,5,6.0,9.0,78,0.00,,,0.00,Wunderground v.1.15,2013-03-30 03:08:00,
2013-03-29 23:18:00,40.5,34.5,29.99,North,5,6.0,10.0,79,0.00,,,0.00,Wunderground v.1.15,2013-03-30 03:18:00,
2013-03-29 23:28:00,40.2,34.5,29.99,North,5,6.0,10.0,80,0.00,,,0.00,Wunderground v.1.15,2013-03-30 03:28:00,
2013-03-29 23:38:00,40.0,34.6,29.99,North,5,5.0,10.0,81,0.00,,,0.00,Wunderground v.1.15,2013-03-30 03:38:00,
2013-03-29 23:48:00,39.8,34.4,29.99,North,5,4.0,4.0,81,0.00,,,0.00,Wunderground v.1.15,2013-03-30 03:48:00,
2013-03-29 23:58:00,39.7,33.7,29.99,North,5,4.0,7.0,79,0.00,,,0.00,Wunderground v.1.15,2013-03-30 03:58:00,